createdAt,value
2024-05-09T00:00:44.212Z,88.92
2024-05-09T00:03:12.303Z,89.60
2024-05-09T00:05:44.278Z,88.89
2024-05-09T00:08:12.582Z,88.43
2024-05-09T00:10:41.133Z,88.99
2024-05-09T00:13:10.417Z,89.10
2024-05-09T00:15:38.656Z,87.97
2024-05-09T00:18:07.691Z,87.97
2024-05-09T00:20:39.638Z,88.85
2024-05-09T00:23:13.748Z,88.42
2024-05-09T00:25:45.484Z,89.43
2024-05-09T00:28:14.629Z,89.20
2024-05-09T00:30:42.005Z,89.49
2024-05-09T00:33:10.816Z,87.81
2024-05-09T00:35:39.891Z,88.52
2024-05-09T00:38:07.669Z,88.18
2024-05-09T00:40:43.459Z,88.74
2024-05-09T00:43:13.033Z,88.51
2024-05-09T00:45:41.729Z,87.80
2024-05-09T00:48:11.597Z,88.68
2024-05-09T00:50:42.413Z,88.23
2024-05-09T00:53:15.547Z,87.52
2024-05-09T00:55:44.313Z,87.39
2024-05-09T00:58:20.096Z,87.53
2024-05-09T01:00:49.864Z,87.24
2024-05-09T01:03:18.013Z,87.70
2024-05-09T01:05:45.695Z,88.12
2024-05-09T01:08:13.638Z,88.45
2024-05-09T01:10:44.213Z,88.63
2024-05-09T01:13:13.370Z,88.46
2024-05-09T01:15:41.288Z,87.82
2024-05-09T01:18:12.762Z,88.16
2024-05-09T01:20:43.943Z,87.27
2024-05-09T01:23:15.047Z,87.36
2024-05-09T01:25:45.155Z,88.06
2024-05-09T01:28:13.442Z,87.84
2024-05-09T01:30:40.821Z,86.76
2024-05-09T01:33:10.022Z,87.17
2024-05-09T01:35:41.343Z,87.02
2024-05-09T01:38:12.751Z,87.36
2024-05-09T01:40:43.328Z,87.28
2024-05-09T01:43:12.068Z,87.32
2024-05-09T01:45:41.285Z,87.44
2024-05-09T01:48:10.463Z,88.78
2024-05-09T01:50:41.703Z,88.07
2024-05-09T01:53:12.631Z,87.88
2024-05-09T01:55:43.214Z,87.84
2024-05-09T01:58:11.108Z,87.61
2024-05-09T02:00:42.241Z,89.60
2024-05-09T02:03:15.412Z,89.28
2024-05-09T02:05:46.879Z,89.56
2024-05-09T02:08:19.991Z,89.46
2024-05-09T02:10:48.916Z,89.49
2024-05-09T02:13:16.930Z,89.52
2024-05-09T02:15:44.600Z,89.59
2024-05-09T02:18:12.853Z,89.93
2024-05-09T02:20:42.055Z,89.44
2024-05-09T02:23:10.344Z,90.19
2024-05-09T02:25:37.963Z,90.43
2024-05-09T02:28:05.859Z,90.52
2024-05-09T02:30:40.267Z,91.01
2024-05-09T02:33:12.311Z,91.05
2024-05-09T02:35:43.352Z,90.45
2024-05-09T02:38:12.208Z,90.23
2024-05-09T02:40:40.520Z,90.41
2024-05-09T02:43:10.592Z,90.44
2024-05-09T02:45:39.974Z,89.69
2024-05-09T02:48:10.873Z,90.40
2024-05-09T02:50:40.654Z,90.65
2024-05-09T02:53:09.408Z,91.10
2024-05-09T02:55:41.324Z,90.39
2024-05-09T02:58:09.676Z,90.87
2024-05-09T03:00:40.692Z,90.94
2024-05-09T03:03:14.948Z,90.66
2024-05-09T03:05:46.642Z,91.40
2024-05-09T03:08:14.609Z,91.05
2024-05-09T03:10:42.767Z,90.70
2024-05-09T03:13:14.017Z,90.50
2024-05-09T03:15:43.022Z,91.24
2024-05-09T03:18:10.956Z,91.53
2024-05-09T03:20:39.155Z,91.13
2024-05-09T03:23:08.909Z,90.28
2024-05-09T03:25:38.325Z,90.08
2024-05-09T03:28:06.455Z,89.87
2024-05-09T03:30:40.386Z,90.18
2024-05-09T03:33:12.514Z,89.66
2024-05-09T03:35:41.042Z,89.63
2024-05-09T03:38:08.621Z,89.66
2024-05-09T03:40:36.081Z,89.02
2024-05-09T03:43:03.614Z,89.11
2024-05-09T03:45:31.075Z,89.33
2024-05-09T03:47:59.180Z,90.56
2024-05-09T03:50:33.651Z,90.15
2024-05-09T03:53:03.236Z,90.78
2024-05-09T03:55:31.115Z,90.10
2024-05-09T03:57:58.699Z,90.04
2024-05-09T04:00:34.876Z,89.60
2024-05-09T04:03:09.152Z,90.27
2024-05-09T04:05:40.893Z,89.81
2024-05-09T04:08:09.920Z,89.18
2024-05-09T04:10:37.645Z,89.97
2024-05-09T04:13:05.468Z,88.45
2024-05-09T04:15:32.994Z,89.23
2024-05-09T04:18:01.261Z,89.09
2024-05-09T04:20:37.277Z,89.00
2024-05-09T04:23:08.945Z,89.76
2024-05-09T04:25:37.762Z,89.03
2024-05-09T04:28:05.704Z,89.79
2024-05-09T04:30:38.432Z,89.95
2024-05-09T04:33:11.148Z,90.28
2024-05-09T04:35:42.607Z,90.06
2024-05-09T04:38:10.900Z,89.38
2024-05-09T04:40:38.656Z,90.34
2024-05-09T04:43:07.368Z,90.06
2024-05-09T04:45:35.257Z,90.06
2024-05-09T04:48:03.485Z,90.27
2024-05-09T04:50:36.866Z,89.80
2024-05-09T04:53:09.533Z,90.01
2024-05-09T04:55:38.368Z,89.21
2024-05-09T04:58:08.932Z,90.48
2024-05-09T05:00:38.982Z,89.32
2024-05-09T05:03:10.848Z,89.46
2024-05-09T05:05:41.899Z,90.98
2024-05-09T05:08:13.505Z,89.85
2024-05-09T05:10:42.411Z,89.69
2024-05-09T05:13:22.710Z,89.36
2024-05-09T05:15:55.261Z,89.31
2024-05-09T05:18:23.411Z,89.96
2024-05-09T05:20:51.294Z,90.15
2024-05-09T05:23:20.274Z,90.05
2024-05-09T05:25:49.528Z,88.96
2024-05-09T05:28:17.304Z,88.60
2024-05-09T05:30:45.322Z,88.18
2024-05-09T05:33:18.724Z,88.43
2024-05-09T05:35:46.879Z,88.12
2024-05-09T05:38:14.496Z,88.48
2024-05-09T05:40:41.974Z,88.81
2024-05-09T05:43:16.708Z,88.63
2024-05-09T05:45:44.712Z,88.89
2024-05-09T05:48:14.133Z,88.41
2024-05-09T05:50:42.468Z,88.78
2024-05-09T05:53:10.688Z,88.22
2024-05-09T05:55:40.074Z,88.96
2024-05-09T05:58:12.124Z,88.70
2024-05-09T06:00:42.121Z,88.45
2024-05-09T06:03:12.747Z,87.54
2024-05-09T06:05:43.312Z,86.98
2024-05-09T06:08:11.544Z,86.40
2024-05-09T06:10:40.904Z,86.66
2024-05-09T06:13:13.497Z,85.94
2024-05-09T06:15:41.855Z,85.03
2024-05-09T06:18:11.093Z,85.91
2024-05-09T06:20:42.585Z,85.65
2024-05-09T06:23:11.385Z,83.64
2024-05-09T06:25:40.227Z,83.57
2024-05-09T06:28:07.603Z,83.46
2024-05-09T06:30:40.310Z,82.52
2024-05-09T06:33:11.931Z,83.67
2024-05-09T06:35:41.321Z,81.88
2024-05-09T06:38:09.712Z,81.85
2024-05-09T06:40:42.520Z,80.95
2024-05-09T06:43:16.423Z,81.44
2024-05-09T06:45:47.720Z,80.31
2024-05-09T06:48:18.221Z,79.88
2024-05-09T06:50:46.157Z,78.77
2024-05-09T06:53:17.475Z,76.91
2024-05-09T06:55:45.228Z,77.00
2024-05-09T06:58:12.716Z,77.35
2024-05-09T07:00:41.813Z,77.11
2024-05-09T07:03:12.450Z,76.97
2024-05-09T07:05:41.648Z,77.63
2024-05-09T07:08:10.016Z,77.65
2024-05-09T07:10:37.835Z,79.03
2024-05-09T07:13:09.899Z,78.93
2024-05-09T07:15:37.867Z,76.91
2024-05-09T07:18:12.230Z,77.01
2024-05-09T07:20:40.708Z,77.53
2024-05-09T07:23:14.761Z,76.37
2024-05-09T07:25:42.473Z,77.11
2024-05-09T07:28:11.768Z,73.80
2024-05-09T07:30:39.240Z,72.97
2024-05-09T07:33:06.751Z,73.24
2024-05-09T07:35:34.645Z,73.38
2024-05-09T07:38:02.189Z,71.42
2024-05-09T07:40:35.785Z,69.57
2024-05-09T07:43:05.024Z,69.59
2024-05-09T07:52:23.566Z,69.80
2024-05-09T07:53:39.497Z,69.75
2024-05-09T07:56:11.880Z,69.14
2024-05-09T07:58:39.745Z,70.33
2024-05-09T08:01:07.342Z,70.46
2024-05-09T08:03:35.175Z,70.52
2024-05-09T08:06:02.719Z,71.30
2024-05-09T08:08:30.193Z,69.61
2024-05-09T08:10:57.611Z,68.93
2024-05-09T08:13:24.970Z,66.32
2024-05-09T08:15:52.930Z,65.42
2024-05-09T08:18:20.573Z,65.08
2024-05-09T08:20:49.092Z,64.52
2024-05-09T08:23:16.567Z,60.68
2024-05-09T08:25:44.308Z,58.08
2024-05-09T08:28:12.194Z,58.60
2024-05-09T08:30:40.275Z,56.66
2024-05-09T08:33:17.200Z,57.54
2024-05-09T08:35:44.939Z,58.44
2024-05-09T08:38:12.447Z,57.81
2024-05-09T08:40:41.279Z,57.45
2024-05-09T08:43:11.678Z,54.89
2024-05-09T08:45:43.721Z,54.29
2024-05-09T08:48:15.269Z,53.64
2024-05-09T08:50:45.254Z,56.50
2024-05-09T08:53:15.236Z,54.71
2024-05-09T08:55:44.758Z,52.40
2024-05-09T08:58:18.021Z,52.76
2024-05-09T09:00:46.832Z,52.43
2024-05-09T09:03:36.834Z,51.13
2024-05-09T09:06:11.691Z,50.97
2024-05-09T09:08:39.733Z,52.43
2024-05-09T09:11:07.388Z,51.49
2024-05-09T09:13:34.807Z,54.07
2024-05-09T09:16:03.009Z,54.14
2024-05-09T09:18:31.282Z,55.07
2024-05-09T09:20:58.947Z,52.14
2024-05-09T09:23:30.363Z,52.87
2024-05-09T09:25:59.763Z,51.98
2024-05-09T09:28:27.202Z,52.97
2024-05-09T09:31:01.560Z,52.17
2024-05-09T09:33:32.657Z,51.83
2024-05-09T09:36:02.616Z,51.50
2024-05-09T09:38:31.438Z,51.72
2024-05-09T09:41:01.454Z,55.09
2024-05-09T09:43:30.792Z,52.84
2024-05-09T09:46:00.359Z,52.52
2024-05-09T09:48:31.462Z,52.36
2024-05-09T09:50:59.821Z,52.22
2024-05-09T09:53:29.266Z,51.61
2024-05-09T09:55:57.791Z,52.26
2024-05-09T09:58:25.618Z,51.69
2024-05-09T10:00:53.274Z,51.51
2024-05-09T10:03:20.799Z,52.15
2024-05-09T10:05:49.451Z,51.62
2024-05-09T10:08:18.221Z,49.97
2024-05-09T10:10:47.706Z,51.13
2024-05-09T10:13:15.977Z,51.99
2024-05-09T10:15:48.549Z,53.06
2024-05-09T10:18:16.502Z,53.83
2024-05-09T10:20:49.351Z,54.72
2024-05-09T10:24:01.824Z,54.52
2024-05-09T10:26:38.810Z,54.46
2024-05-09T10:29:17.276Z,54.57
2024-05-09T10:31:46.257Z,55.63
2024-05-09T10:34:22.349Z,55.47
2024-05-09T10:36:54.517Z,56.83
2024-05-09T10:39:22.275Z,56.83
2024-05-09T10:41:49.837Z,57.92
2024-05-09T10:44:18.488Z,58.22
2024-05-09T10:46:46.260Z,57.89
2024-05-09T10:49:17.046Z,58.30
2024-05-09T10:51:44.942Z,57.67
2024-05-09T10:54:12.468Z,57.67
2024-05-09T10:56:41.045Z,58.35
2024-05-09T10:59:08.529Z,58.80
2024-05-09T11:01:36.761Z,59.02
2024-05-09T11:04:05.229Z,58.51
2024-05-09T11:06:35.022Z,58.83
2024-05-09T11:09:02.657Z,58.93
2024-05-09T11:11:30.201Z,58.06
2024-05-09T11:13:57.655Z,57.06
2024-05-09T11:16:25.202Z,57.34
2024-05-09T11:18:54.973Z,57.07
2024-05-09T11:21:22.680Z,56.45
2024-05-09T11:23:50.265Z,56.17
2024-05-09T11:26:19.657Z,55.92
2024-05-09T11:28:47.393Z,56.00
2024-05-09T11:31:14.882Z,55.62
2024-05-09T11:33:44.670Z,56.34
2024-05-09T11:36:12.250Z,56.25
2024-05-09T11:38:40.019Z,56.48
2024-05-09T11:41:07.718Z,55.87
2024-05-09T11:43:35.188Z,55.75
2024-05-09T11:46:03.716Z,56.13
2024-05-09T11:48:32.272Z,56.24
2024-05-09T11:51:00.088Z,56.36
2024-05-09T11:53:27.444Z,56.53
2024-05-09T11:55:54.898Z,55.05
2024-05-09T11:58:23.620Z,55.98
2024-05-09T12:00:51.189Z,55.15
2024-05-09T12:03:18.645Z,54.96
2024-05-09T12:05:46.454Z,54.71
2024-05-09T12:08:14.327Z,54.18
2024-05-09T12:10:42.303Z,54.24
2024-05-09T12:13:10.066Z,54.03
2024-05-09T12:15:39.037Z,54.13
2024-05-09T12:18:07.927Z,52.92
2024-05-09T12:20:39.059Z,52.17
2024-05-09T12:23:10.094Z,50.54
2024-05-09T12:25:39.390Z,51.78
2024-05-09T12:28:08.493Z,50.80
2024-05-09T12:30:41.487Z,50.01
2024-05-09T12:33:11.869Z,48.55
2024-05-09T12:35:43.229Z,48.95
2024-05-09T12:38:13.675Z,48.33
2024-05-09T12:40:42.455Z,48.47
2024-05-09T12:43:11.060Z,47.99
2024-05-09T12:45:40.425Z,48.08
2024-05-09T12:48:12.175Z,49.34
2024-05-09T12:50:42.010Z,48.84
2024-05-09T12:53:09.921Z,48.48
2024-05-09T12:55:44.869Z,48.53
2024-05-09T12:58:24.403Z,50.42
2024-05-09T13:00:52.594Z,48.99
2024-05-09T13:03:20.626Z,48.99
2024-05-09T13:05:49.796Z,49.01
2024-05-09T13:08:17.464Z,47.93
2024-05-09T13:10:44.991Z,49.14
2024-05-09T13:13:12.878Z,49.94
2024-05-09T13:15:40.680Z,50.32
2024-05-09T13:18:09.210Z,49.89
2024-05-09T13:20:37.167Z,50.04
2024-05-09T13:23:07.527Z,49.38
2024-05-09T13:25:38.799Z,51.66
2024-05-09T13:28:07.493Z,52.26
2024-05-09T13:30:40.363Z,53.14
2024-05-09T13:33:11.694Z,53.85
2024-05-09T13:35:45.504Z,54.26
2024-05-09T13:38:17.991Z,54.74
2024-05-09T13:40:45.805Z,53.93
2024-05-09T13:43:13.674Z,53.59
2024-05-09T13:45:41.201Z,53.00
2024-05-09T13:48:10.024Z,52.84
2024-05-09T13:50:39.135Z,51.46
2024-05-09T13:53:08.074Z,52.04
2024-05-09T13:55:38.506Z,50.79
2024-05-09T13:58:06.834Z,50.79
2024-05-09T14:00:44.225Z,50.10
2024-05-09T14:03:18.756Z,49.15
2024-05-09T14:05:48.044Z,49.02
2024-05-09T14:08:17.816Z,48.62
2024-05-09T14:10:49.189Z,51.06
2024-05-09T14:13:16.993Z,50.07
2024-05-09T14:15:47.259Z,49.37
2024-05-09T14:18:15.164Z,48.72
2024-05-09T14:20:43.481Z,50.05
2024-05-09T14:23:11.053Z,48.72
2024-05-09T14:25:42.309Z,48.70
2024-05-09T14:28:12.978Z,48.78
2024-05-09T14:30:42.208Z,48.31
2024-05-09T14:33:11.265Z,49.10
2024-05-09T14:35:39.318Z,50.65
2024-05-09T14:38:08.863Z,51.11
2024-05-09T14:40:41.985Z,50.69
2024-05-09T14:43:13.382Z,48.16
2024-05-09T14:45:41.835Z,47.64
2024-05-09T14:48:10.121Z,47.84
2024-05-09T14:50:39.675Z,49.12
2024-05-09T14:53:10.180Z,48.86
2024-05-09T14:55:39.970Z,49.22
2024-05-09T14:58:10.187Z,48.86
2024-05-09T15:00:44.746Z,48.84
2024-05-09T15:03:16.049Z,48.11
2024-05-09T15:05:44.932Z,48.59
2024-05-09T15:08:12.498Z,48.57
2024-05-09T15:10:40.117Z,48.61
2024-05-09T15:13:09.767Z,50.38
2024-05-09T15:15:38.876Z,48.01
2024-05-09T15:18:07.026Z,49.58
2024-05-09T15:20:37.088Z,49.30
2024-05-09T15:23:06.940Z,49.59
2024-05-09T15:25:35.526Z,47.67
2024-05-09T15:28:04.437Z,46.87
2024-05-09T15:30:33.842Z,46.05
2024-05-09T15:33:06.229Z,46.20
2024-05-09T15:35:35.476Z,46.76
2024-05-09T15:38:03.785Z,46.66
2024-05-09T15:40:38.898Z,46.87
2024-05-09T15:43:10.647Z,46.45
2024-05-09T15:45:40.426Z,47.38
2024-05-09T15:48:09.980Z,47.71
2024-05-09T15:50:41.015Z,47.19
2024-05-09T15:53:12.403Z,47.94
2024-05-09T15:55:42.165Z,49.63
2024-05-09T15:58:10.297Z,49.39
2024-05-09T16:00:41.612Z,49.92
2024-05-09T16:03:12.363Z,49.32
2024-05-09T16:05:41.842Z,49.10
2024-05-09T16:08:09.684Z,49.44
2024-05-09T16:10:44.187Z,49.91
2024-05-09T16:13:12.888Z,49.44
2024-05-09T16:15:40.844Z,48.37
2024-05-09T16:18:08.800Z,48.46
2024-05-09T16:20:40.242Z,50.45
2024-05-09T16:23:10.115Z,48.64
2024-05-09T16:25:37.788Z,48.27
2024-05-09T16:28:09.125Z,47.35
2024-05-09T16:30:39.741Z,49.47
2024-05-09T16:33:08.664Z,47.92
2024-05-09T16:35:40.017Z,44.73
2024-05-09T16:38:07.659Z,45.25
2024-05-09T16:40:39.254Z,44.41
2024-05-09T16:43:13.102Z,44.74
2024-05-09T16:45:44.128Z,47.69
2024-05-09T16:48:12.340Z,45.40
2024-05-09T16:50:39.752Z,46.19
2024-05-09T16:53:07.500Z,46.13
2024-05-09T16:55:36.162Z,44.79
2024-05-09T16:58:04.905Z,46.36
2024-05-09T17:00:40.307Z,45.93
2024-05-09T17:03:12.721Z,45.54
2024-05-09T17:05:41.744Z,45.95
2024-05-09T17:08:09.838Z,46.89
2024-05-09T17:10:37.642Z,46.51
2024-05-09T17:13:07.515Z,46.72
2024-05-09T17:15:37.112Z,47.29
2024-05-09T17:18:09.786Z,47.41
2024-05-09T17:20:37.874Z,50.02
2024-05-09T17:23:14.905Z,49.27
2024-05-09T17:25:42.925Z,49.24
2024-05-09T17:28:11.380Z,48.68
2024-05-09T17:30:41.006Z,49.72
2024-05-09T17:33:11.317Z,50.53
2024-05-09T17:35:40.180Z,50.75
2024-05-09T17:38:08.239Z,50.92
2024-05-09T17:40:37.815Z,51.55
2024-05-09T17:43:08.595Z,50.89
2024-05-09T17:45:39.152Z,51.93
2024-05-09T17:48:09.355Z,51.29
2024-05-09T17:50:37.953Z,51.19
2024-05-09T17:53:06.760Z,50.83
2024-05-09T17:55:35.211Z,51.08
2024-05-09T17:58:04.142Z,50.94
2024-05-09T18:00:38.663Z,49.33
2024-05-09T18:03:11.805Z,49.03
2024-05-09T18:05:40.814Z,50.51
2024-05-09T18:08:08.919Z,50.62
2024-05-09T18:10:39.274Z,50.99
2024-05-09T18:13:09.046Z,50.70
2024-05-09T18:15:37.176Z,51.69
2024-05-09T18:18:06.022Z,51.71
2024-05-09T18:20:41.751Z,51.92
2024-05-09T18:23:15.180Z,53.28
2024-05-09T18:25:43.871Z,53.54
2024-05-09T18:28:11.498Z,53.70
2024-05-09T18:30:40.985Z,54.68
2024-05-09T18:33:11.199Z,55.07
2024-05-09T18:35:41.266Z,55.30
2024-05-09T18:38:09.572Z,55.60
2024-05-09T18:40:38.492Z,55.90
2024-05-09T18:43:08.895Z,56.16
2024-05-09T18:45:38.226Z,55.79
2024-05-09T18:48:08.067Z,56.35
2024-05-09T18:50:39.529Z,57.11
2024-05-09T18:53:10.579Z,57.61
2024-05-09T18:55:38.680Z,57.27
2024-05-09T18:58:06.886Z,57.76
2024-05-09T19:00:37.901Z,57.99
2024-05-09T19:03:10.247Z,58.15
2024-05-09T19:05:40.667Z,58.71
2024-05-09T19:08:08.935Z,58.62
2024-05-09T19:10:47.610Z,59.32
2024-05-09T19:13:15.567Z,59.79
2024-05-09T19:15:43.951Z,59.48
2024-05-09T19:18:13.896Z,60.13
2024-05-09T19:20:42.220Z,59.99
2024-05-09T19:23:14.284Z,59.81
2024-05-09T19:25:41.775Z,60.74
2024-05-09T19:28:09.473Z,61.28
2024-05-09T19:30:40.966Z,60.79
2024-05-09T19:33:12.824Z,61.30
2024-05-09T19:35:45.367Z,61.94
2024-05-09T19:38:15.959Z,61.47
2024-05-09T19:40:43.448Z,62.06
2024-05-09T19:43:14.021Z,62.63
2024-05-09T19:45:44.827Z,62.59
2024-05-09T19:48:15.654Z,63.16
2024-05-09T19:50:44.893Z,63.23
2024-05-09T19:53:15.848Z,63.34
2024-05-09T19:55:47.397Z,64.41
2024-05-09T19:58:15.732Z,63.65
2024-05-09T20:00:45.099Z,63.90
2024-05-09T20:03:16.223Z,64.10
2024-05-09T20:05:47.382Z,65.07
2024-05-09T20:08:15.335Z,65.44
2024-05-09T20:10:43.151Z,66.03
2024-05-09T20:13:11.554Z,65.97
2024-05-09T20:15:44.809Z,65.90
2024-05-09T20:18:12.417Z,65.81
2024-05-09T20:20:45.179Z,65.95
2024-05-09T20:23:13.518Z,65.87
2024-05-09T20:25:44.858Z,65.89
2024-05-09T20:28:12.421Z,66.35
2024-05-09T20:30:40.055Z,67.50
2024-05-09T20:33:09.059Z,68.09
2024-05-09T20:35:37.391Z,67.68
2024-05-09T20:38:05.520Z,67.31
2024-05-09T20:40:37.142Z,67.25
2024-05-09T20:43:08.553Z,67.11
2024-05-09T20:45:36.526Z,67.20
2024-05-09T20:48:04.466Z,67.18
2024-05-09T20:50:38.156Z,67.43
2024-05-09T20:53:10.694Z,68.01
2024-05-09T20:55:38.864Z,68.49
2024-05-09T20:58:06.255Z,68.84
2024-05-09T21:00:39.896Z,69.26
2024-05-09T21:03:11.903Z,68.99
2024-05-09T21:05:40.551Z,69.30
2024-05-09T21:08:08.368Z,70.12
2024-05-09T21:10:36.853Z,70.28
2024-05-09T21:13:05.825Z,70.72
2024-05-09T21:15:34.247Z,70.81
2024-05-09T21:18:01.913Z,71.14
2024-05-09T21:20:32.644Z,72.34
2024-05-09T21:23:01.608Z,72.86
2024-05-09T21:25:29.677Z,72.94
2024-05-09T21:27:57.327Z,72.36
2024-05-09T21:30:37.481Z,72.54
2024-05-09T21:33:10.476Z,73.41
2024-05-09T21:35:39.822Z,74.24
2024-05-09T21:38:07.540Z,73.84
2024-05-09T21:40:36.643Z,73.96
2024-05-09T21:43:08.369Z,73.46
2024-05-09T21:45:36.969Z,73.31
2024-05-09T21:48:05.502Z,73.47
2024-05-09T21:50:39.627Z,72.99
2024-05-09T21:53:10.935Z,73.92
2024-05-09T21:55:38.588Z,74.58
2024-05-09T21:58:06.188Z,74.16
2024-05-09T22:00:38.075Z,73.22
2024-05-09T22:03:08.148Z,73.25
2024-05-09T22:05:37.296Z,73.66
2024-05-09T22:08:05.199Z,74.32
2024-05-09T22:10:35.089Z,75.02
2024-05-09T22:13:05.664Z,73.91
2024-05-09T22:15:38.974Z,74.54
2024-05-09T22:18:09.731Z,74.61
2024-05-09T22:20:44.681Z,74.17
2024-05-09T22:23:14.836Z,75.34
2024-05-09T22:25:42.498Z,74.88
2024-05-09T22:28:10.334Z,74.30
2024-05-09T22:30:39.833Z,73.84
2024-05-09T22:33:09.729Z,73.07
2024-05-09T22:35:38.952Z,74.80
2024-05-09T22:38:06.585Z,75.91
2024-05-09T22:40:44.824Z,75.72
2024-05-09T22:43:20.815Z,75.13
2024-05-09T22:45:50.146Z,75.10
2024-05-09T22:48:18.152Z,75.20
2024-05-09T22:50:45.675Z,75.58
2024-05-09T22:53:13.070Z,75.09
2024-05-09T22:55:40.583Z,75.71
2024-05-09T22:58:08.350Z,76.07
2024-05-09T23:00:35.894Z,75.08
2024-05-09T23:03:03.714Z,74.89
2024-05-09T23:05:32.308Z,91.57
2024-05-09T23:08:03.213Z,72.10
2024-05-09T23:10:36.216Z,70.87
2024-05-09T23:13:08.722Z,71.61
2024-05-09T23:15:38.345Z,70.65
2024-05-09T23:18:07.221Z,72.45
2024-05-09T23:20:38.554Z,72.02
2024-05-09T23:23:08.965Z,72.81
2024-05-09T23:25:37.239Z,72.05
2024-05-09T23:28:05.507Z,71.40
2024-05-09T23:30:38.077Z,70.12
2024-05-09T23:33:11.909Z,69.83
2024-05-09T23:35:41.541Z,69.47
2024-05-09T23:38:08.953Z,71.68
2024-05-09T23:40:39.711Z,72.27
2024-05-09T23:43:10.260Z,72.74
2024-05-09T23:45:38.586Z,71.54
2024-05-09T23:48:06.724Z,71.81
2024-05-09T23:50:37.422Z,72.71
2024-05-09T23:53:07.986Z,72.94
2024-05-09T23:55:37.006Z,73.37
2024-05-09T23:58:05.109Z,73.93
